Laurel, Florida
Current Conditions -  °F | °C
As of 12:53 AM on Sunday 26 Oct 2014 (Local Time) from KSRQ Reporting Station
Clear Clear  
Wind Chill: 65°   Ceiling: Unl
Heat Index: 65°   Visibility: 10mi
Dew Point: 58°   Wind: 6mph
Humidity: 78%   Direction: 20°NNE
Pressure: 29.98"   Gusts: NA
Location:  27.14°N, 82.46°W
Report Text: KSRQ 260453Z 02005KT 10SM CLR 18/14 A2998 RMK AO2 SLP150 T01830144 402610167
Loading
Personal Weather Stations






























Interactive Weather Map New forecast layout! Learn more

10-Day Weather Forecast

Advertisements
Track Severe Weather on mobile